Talagante, Chile
Current Conditions -  °F | °C
As of 5:00 AM on Saturday 22 Nov 2014 (Local Time) from SCEL Reporting Station
Clear Clear  
Wind Chill: 52°   Ceiling: Unl
Heat Index: 52°   Visibility: 6mi
Dew Point: 39°   Wind: 3mph
Humidity: 62%   Direction: 160°SSE
Pressure: 30"   Gusts: NA
Location:  33.4°S, 70.5°W
Report Text: SCEL 220900Z 16003KT 070V200 CAVOK 11/04 Q1016 NOSIG
Loading
Personal Weather Stations






























Interactive Weather Map New forecast layout! Learn more

10-Day Weather Forecast

Advertisements
Track Severe Weather on mobile